createdAt,value
2022-09-18T00:04:30.953Z,99238.88
2022-09-18T00:09:33.806Z,99235.38
2022-09-18T00:14:38.133Z,99229.63
2022-09-18T00:19:40.889Z,99228.00
2022-09-18T00:24:43.689Z,99234.00
2022-09-18T00:29:47.753Z,99241.56
2022-09-18T00:34:50.436Z,99234.81
2022-09-18T00:39:53.423Z,99233.75
2022-09-18T00:44:57.545Z,99236.03
2022-09-18T00:50:05.163Z,99237.69
2022-09-18T00:55:10.095Z,99237.69
2022-09-18T01:00:15.407Z,99225.31
2022-09-18T01:05:23.040Z,99233.94
2022-09-18T01:10:36.095Z,99234.75
2022-09-18T01:15:44.559Z,99239.94
2022-09-18T01:21:03.889Z,99235.56
2022-09-18T01:26:19.512Z,99236.59
2022-09-18T01:31:29.649Z,99232.06
2022-09-18T01:36:36.436Z,99247.56
2022-09-18T01:41:41.575Z,99238.88
2022-09-18T01:46:46.829Z,99245.25
2022-09-18T01:51:55.148Z,99243.63
2022-09-18T01:57:00.391Z,99236.38
2022-09-18T02:02:07.416Z,99236.81
2022-09-18T02:07:14.601Z,99227.72
2022-09-18T02:12:21.038Z,99228.75
2022-09-18T02:17:32.336Z,99209.59
2022-09-18T02:22:36.027Z,99222.56
2022-09-18T02:27:39.502Z,99224.81
2022-09-18T02:32:43.682Z,99218.44
2022-09-18T02:37:55.971Z,99206.91
2022-09-18T02:43:11.643Z,99212.88
2022-09-18T02:48:30.448Z,99210.59
2022-09-18T02:53:36.410Z,99194.50
2022-09-18T02:58:43.778Z,99187.28
2022-09-18T03:03:48.623Z,99211.63
2022-09-18T03:08:53.561Z,99204.41
2022-09-18T03:13:56.407Z,99206.28
2022-09-18T03:19:01.698Z,99204.59
2022-09-18T03:24:04.454Z,99198.63
2022-09-18T03:29:10.002Z,99202.97
2022-09-18T03:34:16.126Z,99194.09
2022-09-18T03:39:21.408Z,99198.63
2022-09-18T03:44:26.659Z,99195.31
2022-09-18T03:49:33.714Z,99202.34
2022-09-18T03:54:36.457Z,99198.00
2022-09-18T03:59:49.651Z,99208.09
2022-09-18T04:05:19.169Z,99204.19
2022-09-18T04:10:48.452Z,99208.31
2022-09-18T04:15:51.203Z,99203.16
2022-09-18T04:20:55.333Z,99189.56
2022-09-18T04:25:58.241Z,99200.28
2022-09-18T04:31:06.762Z,99197.78
2022-09-18T04:36:11.097Z,99199.66
2022-09-18T04:41:14.170Z,99208.31
2022-09-18T04:46:18.535Z,99197.78
2022-09-18T04:51:22.744Z,99202.50
2022-09-18T04:56:25.641Z,99205.19
2022-09-18T05:01:29.152Z,99207.88
2022-09-18T05:06:36.152Z,99200.06
2022-09-18T05:11:40.087Z,99199.22
2022-09-18T05:16:42.783Z,99199.22
2022-09-18T05:22:08.431Z,99194.88
2022-09-18T05:27:15.762Z,99202.94
2022-09-18T05:32:20.243Z,99199.22
2022-09-18T05:37:24.712Z,99195.28
2022-09-18T05:42:30.497Z,99193.25
2022-09-18T05:47:36.137Z,99189.53
2022-09-18T05:52:41.439Z,99196.53
2022-09-18T05:57:44.732Z,99203.13
2022-09-18T06:02:53.942Z,99206.84
2022-09-18T06:08:00.217Z,99208.28
2022-09-18T06:13:04.094Z,99202.94
2022-09-18T06:18:08.750Z,99214.69
2022-09-18T06:23:13.081Z,99206.88
2022-09-18T06:28:28.131Z,99212.41
2022-09-18T06:33:31.978Z,99216.31
2022-09-18T06:38:36.138Z,99217.59
2022-09-18T06:43:38.974Z,99213.25
2022-09-18T06:49:00.173Z,99210.38
2022-09-18T06:54:04.446Z,99205.84
2022-09-18T06:59:07.815Z,99210.38
2022-09-18T07:04:12.408Z,99202.31
2022-09-18T07:09:20.523Z,99194.06
2022-09-18T07:14:29.079Z,99195.09
2022-09-18T07:19:38.951Z,99203.34
2022-09-18T07:24:44.594Z,99185.44
2022-09-18T07:29:47.655Z,99199.44
2022-09-18T07:34:51.791Z,99200.28
2022-09-18T07:40:02.305Z,99212.63
2022-09-18T07:45:23.946Z,99209.34
2022-09-18T07:50:26.958Z,99212.63
2022-09-18T07:55:31.216Z,99196.16
2022-09-18T08:00:37.064Z,99201.28
2022-09-18T08:05:40.562Z,99195.28
2022-09-18T08:10:45.832Z,99199.44
2022-09-18T08:16:07.152Z,99195.31
2022-09-18T08:21:30.628Z,99192.28
2022-09-18T08:26:38.603Z,99196.41
2022-09-18T08:31:42.316Z,99200.91
2022-09-18T08:36:46.623Z,99206.50
2022-09-18T08:42:05.730Z,99206.91
2022-09-18T08:47:14.884Z,99201.34
2022-09-18T08:52:19.241Z,99193.31
2022-09-18T08:57:29.953Z,99195.38
2022-09-18T09:02:46.809Z,99195.16
2022-09-18T09:08:12.620Z,99190.47
2022-09-18T09:13:55.078Z,99194.78
2022-09-18T09:19:01.792Z,99178.69
2022-09-18T09:24:20.978Z,99173.97
2022-09-18T09:29:44.431Z,99189.63
2022-09-18T09:35:18.192Z,99172.94
2022-09-18T09:40:40.111Z,99188.63
2022-09-18T09:45:46.265Z,99168.19
2022-09-18T09:50:55.846Z,99165.72
2022-09-18T09:56:03.806Z,99159.34
2022-09-18T10:01:12.016Z,99170.25
2022-09-18T10:06:28.967Z,99156.22
2022-09-18T10:11:33.153Z,99150.44
2022-09-18T10:16:40.338Z,99147.78
2022-09-18T10:21:47.687Z,99145.31
2022-09-18T10:26:52.977Z,99135.81
2022-09-18T10:31:57.434Z,99146.94
2022-09-18T10:37:05.161Z,99138.50
2022-09-18T10:42:08.562Z,99131.88
2022-09-18T10:47:21.414Z,99120.50
2022-09-18T10:52:31.800Z,99118.88
2022-09-18T10:57:40.426Z,99126.50
2022-09-18T11:02:48.413Z,99116.19
2022-09-18T11:07:54.259Z,99115.56
2022-09-18T11:12:59.018Z,99115.78
2022-09-18T11:18:15.795Z,99111.66
2022-09-18T11:23:27.729Z,99121.75
2022-09-18T11:28:33.603Z,99121.16
2022-09-18T11:33:45.266Z,99113.09
2022-09-18T11:38:50.847Z,99110.84
2022-09-18T11:44:01.637Z,99114.13
2022-09-18T11:49:07.795Z,99116.41
2022-09-18T11:54:25.559Z,99107.31
2022-09-18T11:59:30.845Z,99126.94
2022-09-18T12:04:41.890Z,99118.28
2022-09-18T12:09:49.536Z,99114.97
2022-09-18T12:15:03.183Z,99127.38
2022-09-18T12:20:11.476Z,99154.16
2022-09-18T12:25:17.788Z,99150.03
2022-09-18T12:30:44.923Z,99148.41
2022-09-18T12:35:58.419Z,99141.38
2022-09-18T12:41:17.448Z,99146.13
2022-09-18T12:46:29.069Z,99137.66
2022-09-18T12:51:38.619Z,99142.19
2022-09-18T12:56:52.534Z,99133.53
2022-09-18T13:01:58.674Z,99136.00
2022-09-18T13:07:04.836Z,99141.59
2022-09-18T13:12:14.257Z,99144.88
2022-09-18T13:17:20.023Z,99131.06
2022-09-18T13:22:24.010Z,99130.88
2022-09-18T13:27:28.666Z,99132.72
2022-09-18T13:32:41.419Z,99135.59
2022-09-18T13:37:44.510Z,99128.59
2022-09-18T13:42:48.759Z,99127.75
2022-09-18T13:48:02.284Z,99125.69
2022-09-18T13:53:06.065Z,99107.16
2022-09-18T13:58:36.899Z,99112.69
2022-09-18T14:03:40.873Z,99112.50
2022-09-18T14:08:43.649Z,99104.81
2022-09-18T14:13:54.135Z,99110.03
2022-09-18T14:19:03.167Z,99099.47
2022-09-18T14:24:25.371Z,99091.41
2022-09-18T14:29:32.863Z,99089.59
2022-09-18T14:34:38.516Z,99094.31
2022-09-18T14:39:41.251Z,99091.41
2022-09-18T14:44:52.349Z,99096.38
2022-09-18T14:49:55.007Z,99087.28
2022-09-18T14:54:59.784Z,99080.09
2022-09-18T15:00:08.044Z,99083.59
2022-09-18T15:05:12.397Z,99082.75
2022-09-18T15:10:17.530Z,99084.00
2022-09-18T15:15:58.406Z,99088.53
2022-09-18T15:21:03.781Z,99094.91
2022-09-18T15:26:09.698Z,99081.94
2022-09-18T15:31:14.573Z,99083.16
2022-09-18T15:36:25.227Z,99125.03
2022-09-18T15:41:35.889Z,99129.97
2022-09-18T15:46:39.978Z,99117.59
2022-09-18T15:51:42.686Z,99120.06
2022-09-18T15:56:51.269Z,99132.66
2022-09-18T16:01:55.833Z,99123.13
2022-09-18T16:07:01.563Z,99130.75
2022-09-18T16:12:27.870Z,99125.63
2022-09-18T16:17:40.430Z,99127.66
2022-09-18T16:22:43.115Z,99109.09
2022-09-18T16:27:46.875Z,99114.69
2022-09-18T16:32:51.014Z,99115.69
2022-09-18T16:37:55.120Z,99104.97
2022-09-18T16:42:58.415Z,99124.16
2022-09-18T16:48:03.534Z,99111.78
2022-09-18T16:53:08.216Z,99108.47
2022-09-18T16:58:11.235Z,99125.19
2022-09-18T17:03:15.577Z,99118.78
2022-09-18T17:08:18.343Z,99123.09
2022-09-18T17:13:21.097Z,99122.28
2022-09-18T17:18:25.269Z,99123.50
2022-09-18T17:23:30.087Z,99135.28
2022-09-18T17:28:32.848Z,99151.34
2022-09-18T17:33:36.889Z,99159.56
2022-09-18T17:38:40.479Z,99157.28
2022-09-18T17:43:43.567Z,99154.63
2022-09-18T17:48:47.637Z,99171.91
2022-09-18T17:53:50.525Z,99168.78
2022-09-18T17:58:56.346Z,99176.00
2022-09-18T18:04:01.051Z,99168.19
2022-09-18T18:09:05.305Z,99145.09
2022-09-18T18:14:08.311Z,99165.50
2022-09-18T18:19:13.089Z,99158.47
2022-09-18T18:24:18.928Z,99151.28
2022-09-18T18:29:21.849Z,99138.50
2022-09-18T18:34:26.711Z,99131.47
2022-09-18T18:39:29.472Z,99166.28
2022-09-18T18:44:32.182Z,99175.38
2022-09-18T18:49:36.365Z,99177.41
2022-09-18T18:54:39.506Z,99185.25
2022-09-18T18:59:43.856Z,99180.91
2022-09-18T19:04:49.767Z,99182.97
2022-09-18T19:09:52.463Z,99184.22
2022-09-18T19:14:55.226Z,99197.59
2022-09-18T19:20:01.513Z,99208.69
2022-09-18T19:25:06.356Z,99197.53
2022-09-18T19:30:10.011Z,99215.47
2022-09-18T19:35:14.068Z,99224.72
2022-09-18T19:40:17.663Z,99229.44
2022-09-18T19:45:24.402Z,99235.19
2022-09-18T19:50:30.956Z,99237.41
2022-09-18T19:55:33.622Z,99230.81
2022-09-18T20:00:39.652Z,99243.22
2022-09-18T20:05:44.251Z,99247.13
2022-09-18T20:10:48.455Z,99249.78
2022-09-18T20:15:59.818Z,99249.97
2022-09-18T20:21:08.510Z,99262.94
2022-09-18T20:26:12.337Z,99271.16
2022-09-18T20:31:16.150Z,99265.34
2022-09-18T20:36:20.243Z,99272.84
2022-09-18T20:41:23.031Z,99278.22
2022-09-18T20:46:30.402Z,99271.22
2022-09-18T20:51:35.978Z,99275.28
2022-09-18T20:56:41.928Z,99281.84
2022-09-18T21:01:45.639Z,99288.06
2022-09-18T21:06:55.947Z,99287.84
2022-09-18T21:11:58.714Z,99294.53
2022-09-18T21:17:01.464Z,99288.75
2022-09-18T21:22:05.848Z,99286.06
2022-09-18T21:27:09.759Z,99299.63
2022-09-18T21:32:12.400Z,99295.88
2022-09-18T21:37:17.149Z,99299.00
2022-09-18T21:42:19.875Z,99298.16
2022-09-18T21:47:22.550Z,99298.38
2022-09-18T21:52:26.686Z,99298.38
2022-09-18T21:57:29.479Z,99293.41
2022-09-18T22:02:32.156Z,99298.38
2022-09-18T22:07:37.075Z,99294.25
2022-09-18T22:12:40.088Z,99294.03
2022-09-18T22:17:42.730Z,99290.09
2022-09-18T22:22:47.049Z,99308.63
2022-09-18T22:27:49.757Z,99307.16
2022-09-18T22:32:52.577Z,99314.34
2022-09-18T22:37:57.014Z,99322.59
2022-09-18T22:42:59.715Z,99322.22
2022-09-18T22:48:02.640Z,99325.44
2022-09-18T22:53:06.707Z,99326.25
2022-09-18T22:58:09.513Z,99322.94
2022-09-18T23:03:12.645Z,99331.84
2022-09-18T23:08:16.738Z,99327.31
2022-09-18T23:13:22.894Z,99337.53
2022-09-18T23:18:25.627Z,99340.44
2022-09-18T23:23:32.168Z,99339.41
2022-09-18T23:28:36.406Z,99348.84
2022-09-18T23:33:39.710Z,99349.47
2022-09-18T23:38:44.251Z,99346.19
2022-09-18T23:43:48.573Z,99356.66
2022-09-18T23:48:54.933Z,99354.22
2022-09-18T23:54:00.798Z,99357.50
2022-09-18T23:59:06.150Z,99358.53
